sensor_id;sensor_type;location;lat;lon;timestamp;P1;durP1;ratioP1;P2;durP2;ratioP2
50988;SDS011;37008;52.210;21.112;2022-07-11T00:00:01;13.82;;;3.03;;
50988;SDS011;37008;52.210;21.112;2022-07-11T00:02:29;4.68;;;2.42;;
50988;SDS011;37008;52.210;21.112;2022-07-11T00:04:55;11.50;;;2.72;;
50988;SDS011;37008;52.210;21.112;2022-07-11T00:07:20;5.68;;;2.55;;
50988;SDS011;37008;52.210;21.112;2022-07-11T00:09:46;4.13;;;2.67;;
50988;SDS011;37008;52.210;21.112;2022-07-11T00:12:12;5.68;;;2.95;;
50988;SDS011;37008;52.210;21.112;2022-07-11T00:14:38;5.65;;;2.80;;
50988;SDS011;37008;52.210;21.112;2022-07-11T00:17:05;6.32;;;3.10;;
50988;SDS011;37008;52.210;21.112;2022-07-11T00:19:33;6.07;;;3.33;;
50988;SDS011;37008;52.210;21.112;2022-07-11T00:21:59;8.95;;;3.15;;
50988;SDS011;37008;52.210;21.112;2022-07-11T00:24:25;6.18;;;3.40;;
50988;SDS011;37008;52.210;21.112;2022-07-11T00:26:51;8.32;;;3.53;;
50988;SDS011;37008;52.210;21.112;2022-07-11T00:29:17;5.85;;;3.65;;
50988;SDS011;37008;52.210;21.112;2022-07-11T00:31:43;5.25;;;3.75;;
50988;SDS011;37008;52.210;21.112;2022-07-11T00:34:09;5.65;;;3.88;;
50988;SDS011;37008;52.210;21.112;2022-07-11T00:36:35;10.27;;;4.47;;
50988;SDS011;37008;52.210;21.112;2022-07-11T00:39:01;6.90;;;4.10;;
50988;SDS011;37008;52.210;21.112;2022-07-11T00:41:27;8.55;;;4.03;;
50988;SDS011;37008;52.210;21.112;2022-07-11T00:43:56;11.00;;;4.25;;
50988;SDS011;37008;52.210;21.112;2022-07-11T00:46:24;8.05;;;4.28;;
50988;SDS011;37008;52.210;21.112;2022-07-11T00:48:52;7.57;;;4.15;;
50988;SDS011;37008;52.210;21.112;2022-07-11T00:51:18;12.25;;;4.10;;
50988;SDS011;37008;52.210;21.112;2022-07-11T00:53:51;8.70;;;4.47;;
50988;SDS011;37008;52.210;21.112;2022-07-11T00:56:21;6.55;;;4.60;;
50988;SDS011;37008;52.210;21.112;2022-07-11T00:58:51;8.32;;;4.80;;
50988;SDS011;37008;52.210;21.112;2022-07-11T01:01:18;11.73;;;5.30;;
50988;SDS011;37008;52.210;21.112;2022-07-11T01:03:44;8.65;;;5.40;;
50988;SDS011;37008;52.210;21.112;2022-07-11T01:06:10;12.70;;;5.68;;
50988;SDS011;37008;52.210;21.112;2022-07-11T01:08:36;8.70;;;6.10;;
50988;SDS011;37008;52.210;21.112;2022-07-11T01:11:03;7.50;;;5.80;;
50988;SDS011;37008;52.210;21.112;2022-07-11T01:13:30;11.93;;;5.75;;
50988;SDS011;37008;52.210;21.112;2022-07-11T01:16:13;9.30;;;5.70;;
50988;SDS011;37008;52.210;21.112;2022-07-11T01:18:44;7.28;;;5.53;;
50988;SDS011;37008;52.210;21.112;2022-07-11T01:23:52;8.30;;;5.28;;
50988;SDS011;37008;52.210;21.112;2022-07-11T01:26:20;8.55;;;5.20;;
50988;SDS011;37008;52.210;21.112;2022-07-11T01:28:46;7.60;;;5.28;;
50988;SDS011;37008;52.210;21.112;2022-07-11T01:31:12;8.75;;;5.28;;
50988;SDS011;37008;52.210;21.112;2022-07-11T01:33:38;11.00;;;5.13;;
50988;SDS011;37008;52.210;21.112;2022-07-11T01:36:05;13.48;;;5.07;;
50988;SDS011;37008;52.210;21.112;2022-07-11T01:38:31;10.65;;;5.03;;
50988;SDS011;37008;52.210;21.112;2022-07-11T01:40:57;7.88;;;4.68;;
50988;SDS011;37008;52.210;21.112;2022-07-11T01:43:23;7.95;;;4.60;;
50988;SDS011;37008;52.210;21.112;2022-07-11T01:45:51;5.05;;;4.13;;
50988;SDS011;37008;52.210;21.112;2022-07-11T01:48:18;6.65;;;4.40;;
50988;SDS011;37008;52.210;21.112;2022-07-11T01:50:44;10.20;;;4.75;;
50988;SDS011;37008;52.210;21.112;2022-07-11T01:53:10;9.07;;;4.40;;
50988;SDS011;37008;52.210;21.112;2022-07-11T01:55:36;12.38;;;4.60;;
50988;SDS011;37008;52.210;21.112;2022-07-11T01:58:02;12.85;;;4.47;;
50988;SDS011;37008;52.210;21.112;2022-07-11T02:00:27;8.45;;;4.15;;
50988;SDS011;37008;52.210;21.112;2022-07-11T02:02:53;7.57;;;4.40;;
50988;SDS011;37008;52.210;21.112;2022-07-11T02:05:19;8.52;;;4.15;;
50988;SDS011;37008;52.210;21.112;2022-07-11T02:07:44;6.85;;;4.40;;
50988;SDS011;37008;52.210;21.112;2022-07-11T02:10:29;8.13;;;4.30;;
50988;SDS011;37008;52.210;21.112;2022-07-11T02:12:58;9.88;;;4.57;;
50988;SDS011;37008;52.210;21.112;2022-07-11T02:15:25;6.53;;;4.57;;
50988;SDS011;37008;52.210;21.112;2022-07-11T02:17:54;8.10;;;4.40;;
50988;SDS011;37008;52.210;21.112;2022-07-11T02:20:21;9.10;;;4.50;;
50988;SDS011;37008;52.210;21.112;2022-07-11T02:22:47;9.80;;;4.93;;
50988;SDS011;37008;52.210;21.112;2022-07-11T02:25:16;7.15;;;4.38;;
50988;SDS011;37008;52.210;21.112;2022-07-11T02:27:42;8.35;;;4.70;;
50988;SDS011;37008;52.210;21.112;2022-07-11T02:30:08;8.00;;;4.80;;
50988;SDS011;37008;52.210;21.112;2022-07-11T02:32:35;8.68;;;4.88;;
50988;SDS011;37008;52.210;21.112;2022-07-11T02:35:01;7.22;;;4.93;;
50988;SDS011;37008;52.210;21.112;2022-07-11T02:37:27;12.65;;;4.63;;
50988;SDS011;37008;52.210;21.112;2022-07-11T02:39:52;11.68;;;5.38;;
50988;SDS011;37008;52.210;21.112;2022-07-11T02:42:18;7.65;;;5.13;;
50988;SDS011;37008;52.210;21.112;2022-07-11T02:44:44;11.82;;;4.78;;
50988;SDS011;37008;52.210;21.112;2022-07-11T02:47:10;12.50;;;5.57;;
50988;SDS011;37008;52.210;21.112;2022-07-11T02:49:36;8.98;;;5.85;;
50988;SDS011;37008;52.210;21.112;2022-07-11T02:52:01;10.63;;;5.57;;
50988;SDS011;37008;52.210;21.112;2022-07-11T02:54:27;9.18;;;5.85;;
50988;SDS011;37008;52.210;21.112;2022-07-11T02:56:53;13.25;;;7.10;;
50988;SDS011;37008;52.210;21.112;2022-07-11T02:59:19;14.98;;;8.20;;
50988;SDS011;37008;52.210;21.112;2022-07-11T03:01:46;14.48;;;9.05;;
50988;SDS011;37008;52.210;21.112;2022-07-11T03:04:11;15.05;;;10.23;;
50988;SDS011;37008;52.210;21.112;2022-07-11T03:06:37;22.50;;;11.93;;
50988;SDS011;37008;52.210;21.112;2022-07-11T03:09:04;19.25;;;10.40;;
50988;SDS011;37008;52.210;21.112;2022-07-11T03:11:30;16.10;;;9.93;;
50988;SDS011;37008;52.210;21.112;2022-07-11T03:13:56;13.00;;;9.38;;
50988;SDS011;37008;52.210;21.112;2022-07-11T03:16:23;19.83;;;9.95;;
50988;SDS011;37008;52.210;21.112;2022-07-11T03:18:48;15.65;;;9.18;;
50988;SDS011;37008;52.210;21.112;2022-07-11T03:21:14;16.15;;;9.45;;
50988;SDS011;37008;52.210;21.112;2022-07-11T03:23:40;13.73;;;8.85;;
50988;SDS011;37008;52.210;21.112;2022-07-11T03:26:06;13.38;;;8.05;;
50988;SDS011;37008;52.210;21.112;2022-07-11T03:28:31;12.82;;;8.02;;
50988;SDS011;37008;52.210;21.112;2022-07-11T03:30:57;13.27;;;8.68;;
50988;SDS011;37008;52.210;21.112;2022-07-11T03:33:22;16.10;;;6.80;;
50988;SDS011;37008;52.210;21.112;2022-07-11T03:35:48;17.17;;;6.78;;
50988;SDS011;37008;52.210;21.112;2022-07-11T03:38:17;14.93;;;6.05;;
50988;SDS011;37008;52.210;21.112;2022-07-11T03:40:44;11.43;;;6.07;;
50988;SDS011;37008;52.210;21.112;2022-07-11T03:43:11;10.63;;;5.18;;
50988;SDS011;37008;52.210;21.112;2022-07-11T03:45:36;11.73;;;5.40;;
50988;SDS011;37008;52.210;21.112;2022-07-11T03:48:02;10.75;;;5.30;;
50988;SDS011;37008;52.210;21.112;2022-07-11T03:50:28;10.38;;;4.75;;
50988;SDS011;37008;52.210;21.112;2022-07-11T03:52:54;6.80;;;4.90;;
50988;SDS011;37008;52.210;21.112;2022-07-11T03:55:21;9.15;;;4.78;;
50988;SDS011;37008;52.210;21.112;2022-07-11T03:57:46;11.40;;;4.60;;
50988;SDS011;37008;52.210;21.112;2022-07-11T04:00:13;13.80;;;4.57;;
50988;SDS011;37008;52.210;21.112;2022-07-11T04:02:39;9.38;;;4.25;;
50988;SDS011;37008;52.210;21.112;2022-07-11T04:05:05;15.85;;;5.07;;
50988;SDS011;37008;52.210;21.112;2022-07-11T04:07:31;11.55;;;3.90;;
50988;SDS011;37008;52.210;21.112;2022-07-11T04:09:57;8.48;;;3.70;;
50988;SDS011;37008;52.210;21.112;2022-07-11T04:12:23;15.25;;;3.55;;
50988;SDS011;37008;52.210;21.112;2022-07-11T04:14:48;9.43;;;3.50;;
50988;SDS011;37008;52.210;21.112;2022-07-11T04:17:14;8.48;;;3.15;;
50988;SDS011;37008;52.210;21.112;2022-07-11T04:19:40;7.05;;;2.83;;
50988;SDS011;37008;52.210;21.112;2022-07-11T04:22:07;11.00;;;3.60;;
50988;SDS011;37008;52.210;21.112;2022-07-11T04:24:33;10.07;;;3.38;;
50988;SDS011;37008;52.210;21.112;2022-07-11T04:26:59;10.45;;;3.08;;
50988;SDS011;37008;52.210;21.112;2022-07-11T04:29:25;9.13;;;3.60;;
50988;SDS011;37008;52.210;21.112;2022-07-11T04:31:51;10.25;;;3.22;;
50988;SDS011;37008;52.210;21.112;2022-07-11T04:34:16;6.97;;;3.03;;
50988;SDS011;37008;52.210;21.112;2022-07-11T04:36:42;7.00;;;3.33;;
50988;SDS011;37008;52.210;21.112;2022-07-11T04:39:08;6.30;;;2.63;;
50988;SDS011;37008;52.210;21.112;2022-07-11T04:41:34;14.50;;;2.85;;
50988;SDS011;37008;52.210;21.112;2022-07-11T04:44:00;7.63;;;2.33;;
50988;SDS011;37008;52.210;21.112;2022-07-11T04:46:26;7.97;;;2.92;;
50988;SDS011;37008;52.210;21.112;2022-07-11T04:48:51;8.88;;;2.80;;
50988;SDS011;37008;52.210;21.112;2022-07-11T04:51:17;4.35;;;2.55;;
50988;SDS011;37008;52.210;21.112;2022-07-11T04:53:43;8.60;;;3.05;;
50988;SDS011;37008;52.210;21.112;2022-07-11T04:56:09;7.55;;;2.55;;
50988;SDS011;37008;52.210;21.112;2022-07-11T04:58:35;7.88;;;2.78;;
50988;SDS011;37008;52.210;21.112;2022-07-11T05:01:00;7.78;;;3.00;;
50988;SDS011;37008;52.210;21.112;2022-07-11T05:03:27;6.30;;;2.70;;
50988;SDS011;37008;52.210;21.112;2022-07-11T05:05:53;5.22;;;3.17;;
50988;SDS011;37008;52.210;21.112;2022-07-11T05:08:19;4.82;;;2.50;;
50988;SDS011;37008;52.210;21.112;2022-07-11T05:10:44;7.55;;;2.88;;
50988;SDS011;37008;52.210;21.112;2022-07-11T05:13:10;6.13;;;2.80;;
50988;SDS011;37008;52.210;21.112;2022-07-11T05:15:36;10.95;;;3.30;;
50988;SDS011;37008;52.210;21.112;2022-07-11T05:18:03;10.25;;;2.90;;
50988;SDS011;37008;52.210;21.112;2022-07-11T05:20:29;10.52;;;3.50;;
50988;SDS011;37008;52.210;21.112;2022-07-11T05:22:55;9.95;;;3.33;;
50988;SDS011;37008;52.210;21.112;2022-07-11T05:25:21;9.57;;;3.50;;
50988;SDS011;37008;52.210;21.112;2022-07-11T05:27:47;7.82;;;3.70;;
50988;SDS011;37008;52.210;21.112;2022-07-11T05:30:12;7.47;;;3.80;;
50988;SDS011;37008;52.210;21.112;2022-07-11T05:32:38;10.18;;;3.83;;
50988;SDS011;37008;52.210;21.112;2022-07-11T05:35:04;9.93;;;4.05;;
50988;SDS011;37008;52.210;21.112;2022-07-11T05:37:30;10.30;;;4.05;;
50988;SDS011;37008;52.210;21.112;2022-07-11T05:39:56;7.72;;;3.40;;
50988;SDS011;37008;52.210;21.112;2022-07-11T05:42:21;10.75;;;3.50;;
50988;SDS011;37008;52.210;21.112;2022-07-11T05:44:48;4.97;;;3.72;;
50988;SDS011;37008;52.210;21.112;2022-07-11T05:47:14;9.70;;;4.05;;
50988;SDS011;37008;52.210;21.112;2022-07-11T05:49:40;9.63;;;4.97;;
50988;SDS011;37008;52.210;21.112;2022-07-11T05:52:06;9.02;;;4.70;;
50988;SDS011;37008;52.210;21.112;2022-07-11T05:54:32;11.55;;;5.68;;
50988;SDS011;37008;52.210;21.112;2022-07-11T05:56:57;7.47;;;4.30;;
50988;SDS011;37008;52.210;21.112;2022-07-11T05:59:23;9.77;;;4.95;;
50988;SDS011;37008;52.210;21.112;2022-07-11T06:01:48;9.73;;;5.20;;
50988;SDS011;37008;52.210;21.112;2022-07-11T06:04:14;12.13;;;5.30;;
50988;SDS011;37008;52.210;21.112;2022-07-11T06:06:40;10.68;;;5.65;;
50988;SDS011;37008;52.210;21.112;2022-07-11T06:09:06;12.38;;;6.03;;
50988;SDS011;37008;52.210;21.112;2022-07-11T06:11:31;10.35;;;6.72;;
50988;SDS011;37008;52.210;21.112;2022-07-11T06:13:57;11.98;;;7.63;;
50988;SDS011;37008;52.210;21.112;2022-07-11T06:16:23;11.57;;;8.02;;
50988;SDS011;37008;52.210;21.112;2022-07-11T06:18:49;12.77;;;8.57;;
50988;SDS011;37008;52.210;21.112;2022-07-11T06:21:16;11.05;;;9.20;;
50988;SDS011;37008;52.210;21.112;2022-07-11T06:23:42;19.23;;;11.77;;
50988;SDS011;37008;52.210;21.112;2022-07-11T06:26:08;14.52;;;11.40;;
50988;SDS011;37008;52.210;21.112;2022-07-11T06:28:33;15.05;;;12.38;;
50988;SDS011;37008;52.210;21.112;2022-07-11T06:30:59;15.35;;;11.10;;
50988;SDS011;37008;52.210;21.112;2022-07-11T06:33:26;12.32;;;11.05;;
50988;SDS011;37008;52.210;21.112;2022-07-11T06:35:52;12.20;;;9.93;;
50988;SDS011;37008;52.210;21.112;2022-07-11T06:38:18;12.15;;;8.13;;
50988;SDS011;37008;52.210;21.112;2022-07-11T06:40:43;8.82;;;5.80;;
50988;SDS011;37008;52.210;21.112;2022-07-11T06:43:10;8.77;;;5.90;;
50988;SDS011;37008;52.210;21.112;2022-07-11T06:45:36;12.77;;;6.00;;
50988;SDS011;37008;52.210;21.112;2022-07-11T06:48:02;10.02;;;4.30;;
50988;SDS011;37008;52.210;21.112;2022-07-11T06:50:29;6.03;;;4.45;;
50988;SDS011;37008;52.210;21.112;2022-07-11T06:52:54;6.20;;;4.18;;
50988;SDS011;37008;52.210;21.112;2022-07-11T06:55:20;7.00;;;4.43;;
50988;SDS011;37008;52.210;21.112;2022-07-11T06:57:46;9.38;;;3.85;;
50988;SDS011;37008;52.210;21.112;2022-07-11T07:00:11;8.13;;;3.20;;
50988;SDS011;37008;52.210;21.112;2022-07-11T07:02:37;9.73;;;3.30;;
50988;SDS011;37008;52.210;21.112;2022-07-11T07:05:04;6.93;;;3.30;;
50988;SDS011;37008;52.210;21.112;2022-07-11T07:07:30;9.02;;;3.95;;
50988;SDS011;37008;52.210;21.112;2022-07-11T07:09:56;5.55;;;3.20;;
50988;SDS011;37008;52.210;21.112;2022-07-11T07:12:22;7.03;;;3.47;;
50988;SDS011;37008;52.210;21.112;2022-07-11T07:14:48;5.10;;;3.00;;
50988;SDS011;37008;52.210;21.112;2022-07-11T07:17:14;4.50;;;2.67;;
50988;SDS011;37008;52.210;21.112;2022-07-11T07:19:40;7.05;;;2.92;;
50988;SDS011;37008;52.210;21.112;2022-07-11T07:22:06;6.57;;;2.83;;
50988;SDS011;37008;52.210;21.112;2022-07-11T07:24:33;5.80;;;3.20;;
50988;SDS011;37008;52.210;21.112;2022-07-11T07:27:02;5.75;;;3.00;;
50988;SDS011;37008;52.210;21.112;2022-07-11T07:29:28;8.48;;;3.60;;
50988;SDS011;37008;52.210;21.112;2022-07-11T07:31:53;9.75;;;3.90;;
50988;SDS011;37008;52.210;21.112;2022-07-11T07:34:19;9.48;;;3.70;;
50988;SDS011;37008;52.210;21.112;2022-07-11T07:36:45;7.25;;;3.53;;
50988;SDS011;37008;52.210;21.112;2022-07-11T07:39:11;8.43;;;4.35;;
50988;SDS011;37008;52.210;21.112;2022-07-11T07:41:37;8.65;;;4.10;;
50988;SDS011;37008;52.210;21.112;2022-07-11T07:44:02;7.20;;;3.92;;
50988;SDS011;37008;52.210;21.112;2022-07-11T07:46:28;6.07;;;4.07;;
50988;SDS011;37008;52.210;21.112;2022-07-11T07:48:54;13.93;;;4.88;;
50988;SDS011;37008;52.210;21.112;2022-07-11T07:51:19;7.95;;;4.97;;
50988;SDS011;37008;52.210;21.112;2022-07-11T07:53:46;14.95;;;5.47;;
50988;SDS011;37008;52.210;21.112;2022-07-11T07:56:12;13.77;;;5.20;;
50988;SDS011;37008;52.210;21.112;2022-07-11T07:58:38;11.80;;;6.45;;
50988;SDS011;37008;52.210;21.112;2022-07-11T08:01:04;13.20;;;5.70;;
50988;SDS011;37008;52.210;21.112;2022-07-11T08:03:48;11.55;;;5.47;;
50988;SDS011;37008;52.210;21.112;2022-07-11T08:06:14;13.27;;;6.57;;
50988;SDS011;37008;52.210;21.112;2022-07-11T08:08:40;8.60;;;5.90;;
50988;SDS011;37008;52.210;21.112;2022-07-11T08:11:05;10.20;;;6.05;;
50988;SDS011;37008;52.210;21.112;2022-07-11T08:13:31;12.30;;;6.80;;
50988;SDS011;37008;52.210;21.112;2022-07-11T08:15:56;13.13;;;7.05;;
50988;SDS011;37008;52.210;21.112;2022-07-11T08:18:22;9.88;;;6.68;;
50988;SDS011;37008;52.210;21.112;2022-07-11T08:20:48;11.98;;;7.03;;
50988;SDS011;37008;52.210;21.112;2022-07-11T08:23:13;14.05;;;8.20;;
50988;SDS011;37008;52.210;21.112;2022-07-11T08:25:39;15.15;;;10.13;;
50988;SDS011;37008;52.210;21.112;2022-07-11T08:28:05;14.52;;;9.75;;
50988;SDS011;37008;52.210;21.112;2022-07-11T08:30:31;15.73;;;9.85;;
50988;SDS011;37008;52.210;21.112;2022-07-11T08:32:57;16.08;;;10.68;;
50988;SDS011;37008;52.210;21.112;2022-07-11T08:35:23;10.10;;;7.32;;
50988;SDS011;37008;52.210;21.112;2022-07-11T08:37:49;10.63;;;6.10;;
50988;SDS011;37008;52.210;21.112;2022-07-11T08:40:15;6.03;;;4.30;;
50988;SDS011;37008;52.210;21.112;2022-07-11T08:42:43;7.28;;;4.55;;
50988;SDS011;37008;52.210;21.112;2022-07-11T08:45:12;6.45;;;4.65;;
50988;SDS011;37008;52.210;21.112;2022-07-11T08:47:39;11.80;;;5.32;;
50988;SDS011;37008;52.210;21.112;2022-07-11T08:50:05;9.30;;;7.00;;
50988;SDS011;37008;52.210;21.112;2022-07-11T08:52:32;6.93;;;4.90;;
50988;SDS011;37008;52.210;21.112;2022-07-11T08:54:59;8.50;;;5.30;;
50988;SDS011;37008;52.210;21.112;2022-07-11T08:57:25;9.10;;;5.38;;
50988;SDS011;37008;52.210;21.112;2022-07-11T08:59:54;7.65;;;4.13;;
50988;SDS011;37008;52.210;21.112;2022-07-11T09:02:23;9.43;;;3.70;;
50988;SDS011;37008;52.210;21.112;2022-07-11T09:04:49;6.40;;;3.80;;
50988;SDS011;37008;52.210;21.112;2022-07-11T09:07:18;6.70;;;3.47;;
50988;SDS011;37008;52.210;21.112;2022-07-11T09:09:43;9.82;;;3.80;;
50988;SDS011;37008;52.210;21.112;2022-07-11T09:12:12;5.15;;;2.83;;
50988;SDS011;37008;52.210;21.112;2022-07-11T09:14:45;5.55;;;3.42;;
50988;SDS011;37008;52.210;21.112;2022-07-11T09:17:13;7.00;;;3.60;;
50988;SDS011;37008;52.210;21.112;2022-07-11T09:19:38;5.32;;;3.13;;
50988;SDS011;37008;52.210;21.112;2022-07-11T09:22:11;4.18;;;2.88;;
50988;SDS011;37008;52.210;21.112;2022-07-11T09:27:45;5.70;;;2.90;;
50988;SDS011;37008;52.210;21.112;2022-07-11T09:30:19;5.10;;;3.20;;
50988;SDS011;37008;52.210;21.112;2022-07-11T09:32:58;7.78;;;2.50;;
50988;SDS011;37008;52.210;21.112;2022-07-11T09:35:34;5.13;;;2.40;;
50988;SDS011;37008;52.210;21.112;2022-07-11T09:38:02;4.65;;;1.38;;
50988;SDS011;37008;52.210;21.112;2022-07-11T09:40:32;2.63;;;1.58;;
50988;SDS011;37008;52.210;21.112;2022-07-11T09:42:58;4.32;;;1.50;;
50988;SDS011;37008;52.210;21.112;2022-07-11T09:45:25;2.50;;;1.35;;
50988;SDS011;37008;52.210;21.112;2022-07-11T09:47:52;1.48;;;1.10;;
50988;SDS011;37008;52.210;21.112;2022-07-11T09:50:27;1.80;;;1.00;;
50988;SDS011;37008;52.210;21.112;2022-07-11T09:52:59;2.22;;;0.80;;
50988;SDS011;37008;52.210;21.112;2022-07-11T09:55:32;2.88;;;0.90;;
50988;SDS011;37008;52.210;21.112;2022-07-11T09:57:59;2.65;;;0.80;;
50988;SDS011;37008;52.210;21.112;2022-07-11T10:00:32;6.60;;;1.20;;
50988;SDS011;37008;52.210;21.112;2022-07-11T10:02:59;2.35;;;0.95;;
50988;SDS011;37008;52.210;21.112;2022-07-11T10:05:25;3.00;;;0.73;;
50988;SDS011;37008;52.210;21.112;2022-07-11T10:07:52;1.77;;;0.73;;
50988;SDS011;37008;52.210;21.112;2022-07-11T10:10:18;2.03;;;1.00;;
50988;SDS011;37008;52.210;21.112;2022-07-11T10:12:44;4.40;;;0.73;;
50988;SDS011;37008;52.210;21.112;2022-07-11T10:15:11;0.70;;;0.52;;
50988;SDS011;37008;52.210;21.112;2022-07-11T10:26:15;3.50;;;0.80;;
50988;SDS011;37008;52.210;21.112;2022-07-11T10:28:52;1.17;;;0.90;;
50988;SDS011;37008;52.210;21.112;2022-07-11T10:31:22;1.40;;;0.75;;
50988;SDS011;37008;52.210;21.112;2022-07-11T10:34:05;3.10;;;0.73;;
50988;SDS011;37008;52.210;21.112;2022-07-11T10:36:44;0.90;;;0.60;;
50988;SDS011;37008;52.210;21.112;2022-07-11T10:41:43;2.67;;;0.60;;
50988;SDS011;37008;52.210;21.112;2022-07-11T10:44:12;1.80;;;0.70;;
50988;SDS011;37008;52.210;21.112;2022-07-11T10:46:38;1.42;;;0.55;;
50988;SDS011;37008;52.210;21.112;2022-07-11T10:49:15;0.95;;;0.60;;
50988;SDS011;37008;52.210;21.112;2022-07-11T11:02:28;2.97;;;0.60;;
50988;SDS011;37008;52.210;21.112;2022-07-11T11:04:55;1.45;;;0.55;;
50988;SDS011;37008;52.210;21.112;2022-07-11T11:09:54;1.27;;;0.50;;
50988;SDS011;37008;52.210;21.112;2022-07-11T11:12:20;3.00;;;0.52;;
50988;SDS011;37008;52.210;21.112;2022-07-11T11:23:29;1.63;;;0.70;;
50988;SDS011;37008;52.210;21.112;2022-07-11T11:26:09;6.80;;;1.00;;
50988;SDS011;37008;52.210;21.112;2022-07-11T11:28:37;3.28;;;0.80;;
50988;SDS011;37008;52.210;21.112;2022-07-11T11:31:07;2.17;;;0.70;;
50988;SDS011;37008;52.210;21.112;2022-07-11T11:33:33;1.00;;;0.50;;
50988;SDS011;37008;52.210;21.112;2022-07-11T11:36:03;4.40;;;0.90;;
50988;SDS011;37008;52.210;21.112;2022-07-11T11:38:33;3.72;;;0.68;;
50988;SDS011;37008;52.210;21.112;2022-07-11T11:41:00;3.17;;;0.60;;
50988;SDS011;37008;52.210;21.112;2022-07-11T11:43:26;1.60;;;0.50;;
50988;SDS011;37008;52.210;21.112;2022-07-11T11:45:53;0.60;;;0.50;;
50988;SDS011;37008;52.210;21.112;2022-07-11T11:48:28;1.85;;;0.70;;
50988;SDS011;37008;52.210;21.112;2022-07-11T11:53:27;0.98;;;0.50;;
50988;SDS011;37008;52.210;21.112;2022-07-11T11:55:54;2.25;;;0.50;;
50988;SDS011;37008;52.210;21.112;2022-07-11T11:58:20;0.75;;;0.40;;
50988;SDS011;37008;52.210;21.112;2022-07-11T12:00:55;0.93;;;0.50;;
50988;SDS011;37008;52.210;21.112;2022-07-11T12:03:21;0.65;;;0.50;;
50988;SDS011;37008;52.210;21.112;2022-07-11T12:05:54;2.08;;;0.50;;
50988;SDS011;37008;52.210;21.112;2022-07-11T12:08:24;2.42;;;0.50;;
50988;SDS011;37008;52.210;21.112;2022-07-11T12:10:54;1.35;;;0.68;;
50988;SDS011;37008;52.210;21.112;2022-07-11T12:13:20;4.75;;;0.80;;
50988;SDS011;37008;52.210;21.112;2022-07-11T12:15:47;2.83;;;0.68;;
50988;SDS011;37008;52.210;21.112;2022-07-11T12:18:40;2.88;;;0.80;;
50988;SDS011;37008;52.210;21.112;2022-07-11T12:21:09;0.90;;;0.70;;
50988;SDS011;37008;52.210;21.112;2022-07-11T12:23:36;1.40;;;0.80;;
50988;SDS011;37008;52.210;21.112;2022-07-11T12:26:01;2.45;;;0.80;;
50988;SDS011;37008;52.210;21.112;2022-07-11T12:28:27;1.38;;;0.70;;
50988;SDS011;37008;52.210;21.112;2022-07-11T12:30:54;1.23;;;0.73;;
50988;SDS011;37008;52.210;21.112;2022-07-11T12:33:23;3.47;;;0.80;;
50988;SDS011;37008;52.210;21.112;2022-07-11T12:35:58;1.63;;;0.60;;
50988;SDS011;37008;52.210;21.112;2022-07-11T12:38:25;1.05;;;0.40;;
50988;SDS011;37008;52.210;21.112;2022-07-11T12:41:02;0.80;;;0.40;;
50988;SDS011;37008;52.210;21.112;2022-07-11T12:46:25;1.63;;;0.40;;
50988;SDS011;37008;52.210;21.112;2022-07-11T12:48:52;1.65;;;0.30;;
50988;SDS011;37008;52.210;21.112;2022-07-11T12:51:25;0.32;;;0.30;;
50988;SDS011;37008;52.210;21.112;2022-07-11T12:53:59;1.15;;;0.47;;
50988;SDS011;37008;52.210;21.112;2022-07-11T12:56:26;0.68;;;0.40;;
50988;SDS011;37008;52.210;21.112;2022-07-11T12:58:52;2.72;;;0.82;;
50988;SDS011;37008;52.210;21.112;2022-07-11T13:01:17;14.13;;;1.10;;
50988;SDS011;37008;52.210;21.112;2022-07-11T13:03:43;3.88;;;1.00;;
50988;SDS011;37008;52.210;21.112;2022-07-11T13:06:09;7.07;;;1.10;;
50988;SDS011;37008;52.210;21.112;2022-07-11T13:08:35;3.10;;;1.00;;
50988;SDS011;37008;52.210;21.112;2022-07-11T13:11:11;5.50;;;1.05;;
50988;SDS011;37008;52.210;21.112;2022-07-11T13:13:38;6.95;;;1.00;;
50988;SDS011;37008;52.210;21.112;2022-07-11T13:16:04;3.25;;;1.17;;
50988;SDS011;37008;52.210;21.112;2022-07-11T13:18:30;9.38;;;1.45;;
50988;SDS011;37008;52.210;21.112;2022-07-11T13:20:56;5.55;;;1.40;;
50988;SDS011;37008;52.210;21.112;2022-07-11T13:23:22;4.95;;;1.20;;
50988;SDS011;37008;52.210;21.112;2022-07-11T13:25:48;3.20;;;1.00;;
50988;SDS011;37008;52.210;21.112;2022-07-11T13:28:13;4.28;;;1.23;;
50988;SDS011;37008;52.210;21.112;2022-07-11T13:30:40;4.90;;;1.17;;
50988;SDS011;37008;52.210;21.112;2022-07-11T13:33:05;2.67;;;1.25;;
50988;SDS011;37008;52.210;21.112;2022-07-11T13:35:32;3.85;;;1.20;;
50988;SDS011;37008;52.210;21.112;2022-07-11T13:37:57;5.60;;;1.55;;
50988;SDS011;37008;52.210;21.112;2022-07-11T13:40:23;6.53;;;1.23;;
50988;SDS011;37008;52.210;21.112;2022-07-11T13:42:50;1.67;;;0.90;;
50988;SDS011;37008;52.210;21.112;2022-07-11T13:45:17;3.65;;;1.40;;
50988;SDS011;37008;52.210;21.112;2022-07-11T13:47:44;4.40;;;1.10;;
50988;SDS011;37008;52.210;21.112;2022-07-11T13:50:11;2.90;;;1.35;;
50988;SDS011;37008;52.210;21.112;2022-07-11T13:52:37;3.65;;;1.00;;
50988;SDS011;37008;52.210;21.112;2022-07-11T13:55:03;3.00;;;1.10;;
50988;SDS011;37008;52.210;21.112;2022-07-11T13:57:30;4.95;;;1.20;;
50988;SDS011;37008;52.210;21.112;2022-07-11T13:59:55;2.38;;;1.00;;
50988;SDS011;37008;52.210;21.112;2022-07-11T14:02:22;2.15;;;1.02;;
50988;SDS011;37008;52.210;21.112;2022-07-11T14:04:48;1.63;;;0.95;;
50988;SDS011;37008;52.210;21.112;2022-07-11T14:07:13;1.58;;;0.90;;
50988;SDS011;37008;52.210;21.112;2022-07-11T14:09:39;2.95;;;0.90;;
50988;SDS011;37008;52.210;21.112;2022-07-11T14:12:05;4.90;;;0.80;;
50988;SDS011;37008;52.210;21.112;2022-07-11T14:14:32;3.80;;;1.08;;
50988;SDS011;37008;52.210;21.112;2022-07-11T14:16:58;2.92;;;1.02;;
50988;SDS011;37008;52.210;21.112;2022-07-11T14:19:25;3.85;;;0.95;;
50988;SDS011;37008;52.210;21.112;2022-07-11T14:21:51;2.72;;;1.45;;
50988;SDS011;37008;52.210;21.112;2022-07-11T14:24:17;3.10;;;1.13;;
50988;SDS011;37008;52.210;21.112;2022-07-11T14:26:43;2.22;;;1.10;;
50988;SDS011;37008;52.210;21.112;2022-07-11T14:29:09;3.13;;;0.82;;
50988;SDS011;37008;52.210;21.112;2022-07-11T14:31:36;2.78;;;1.10;;
50988;SDS011;37008;52.210;21.112;2022-07-11T14:34:02;4.93;;;0.95;;
50988;SDS011;37008;52.210;21.112;2022-07-11T14:36:28;3.17;;;1.23;;
50988;SDS011;37008;52.210;21.112;2022-07-11T14:38:54;1.80;;;0.70;;
50988;SDS011;37008;52.210;21.112;2022-07-11T14:41:20;2.53;;;1.20;;
50988;SDS011;37008;52.210;21.112;2022-07-11T14:43:46;3.58;;;0.98;;
50988;SDS011;37008;52.210;21.112;2022-07-11T14:46:13;8.48;;;1.40;;
50988;SDS011;37008;52.210;21.112;2022-07-11T14:48:40;9.05;;;1.33;;
50988;SDS011;37008;52.210;21.112;2022-07-11T14:51:07;2.08;;;1.00;;
50988;SDS011;37008;52.210;21.112;2022-07-11T14:53:33;2.45;;;0.80;;
50988;SDS011;37008;52.210;21.112;2022-07-11T14:55:58;1.92;;;0.80;;
50988;SDS011;37008;52.210;21.112;2022-07-11T14:58:24;3.03;;;0.90;;
50988;SDS011;37008;52.210;21.112;2022-07-11T15:00:49;3.58;;;0.90;;
50988;SDS011;37008;52.210;21.112;2022-07-11T15:03:15;2.40;;;1.00;;
50988;SDS011;37008;52.210;21.112;2022-07-11T15:05:59;2.17;;;0.93;;
50988;SDS011;37008;52.210;21.112;2022-07-11T15:08:25;1.95;;;0.70;;
50988;SDS011;37008;52.210;21.112;2022-07-11T15:11:09;1.38;;;0.90;;
50988;SDS011;37008;52.210;21.112;2022-07-11T15:14:08;2.78;;;0.85;;